createdAt,value
2023-04-17T00:01:05.472Z,101587.66
2023-04-17T00:03:32.188Z,101578.97
2023-04-17T00:05:58.874Z,101584.19
2023-04-17T00:08:25.317Z,101578.06
2023-04-17T00:11:04.149Z,101580.66
2023-04-17T00:13:34.007Z,101582.44
2023-04-17T00:16:00.518Z,101575.47
2023-04-17T00:18:27.049Z,101580.69
2023-04-17T00:20:53.682Z,101573.69
2023-04-17T00:23:20.269Z,101571.06
2023-04-17T00:25:46.736Z,101579.78
2023-04-17T00:28:13.195Z,101566.72
2023-04-17T00:30:39.648Z,101570.22
2023-04-17T00:33:06.163Z,101571.94
2023-04-17T00:35:32.584Z,101579.81
2023-04-17T00:37:58.976Z,101571.09
2023-04-17T00:40:25.459Z,101570.22
2023-04-17T00:42:56.028Z,101574.59
2023-04-17T00:45:22.548Z,101572.84
2023-04-17T00:47:49.971Z,101578.06
2023-04-17T00:50:16.703Z,101565.00
2023-04-17T00:52:44.623Z,101570.22
2023-04-17T00:55:11.470Z,101558.88
2023-04-17T00:57:37.937Z,101563.25
2023-04-17T01:00:05.836Z,101554.50
2023-04-17T01:02:32.572Z,101554.53
2023-04-17T01:04:59.107Z,101555.41
2023-04-17T01:07:26.212Z,101563.28
2023-04-17T01:09:53.577Z,101564.13
2023-04-17T01:12:22.562Z,101557.16
2023-04-17T01:14:53.622Z,101563.22
2023-04-17T01:17:21.328Z,101558.00
2023-04-17T01:19:49.141Z,101563.28
2023-04-17T01:22:16.551Z,101564.13
2023-04-17T01:24:43.350Z,101564.13
2023-04-17T01:27:09.885Z,101555.41
2023-04-17T01:29:36.326Z,101564.13
2023-04-17T01:32:02.780Z,101558.00
2023-04-17T01:34:29.208Z,101555.41
2023-04-17T01:36:55.632Z,101560.66
2023-04-17T01:39:22.097Z,101561.50
2023-04-17T01:41:48.576Z,101557.16
2023-04-17T01:44:15.050Z,101559.75
2023-04-17T01:46:41.492Z,101562.38
2023-04-17T01:49:07.957Z,101558.03
2023-04-17T01:51:34.435Z,101558.88
2023-04-17T01:54:00.894Z,101564.13
2023-04-17T01:56:27.310Z,101565.84
2023-04-17T01:58:54.241Z,101563.25
2023-04-17T02:01:21.021Z,101558.88
2023-04-17T02:03:47.752Z,101564.13
2023-04-17T02:06:15.631Z,101560.63
2023-04-17T02:08:42.345Z,101566.72
2023-04-17T02:11:10.117Z,101560.66
2023-04-17T02:13:36.817Z,101558.00
2023-04-17T02:16:03.439Z,101561.50
2023-04-17T02:18:29.915Z,101563.25
2023-04-17T02:20:56.326Z,101571.13
2023-04-17T02:23:22.776Z,101568.50
2023-04-17T02:25:49.208Z,101563.25
2023-04-17T02:28:15.773Z,101565.91
2023-04-17T02:30:42.470Z,101564.16
2023-04-17T02:33:08.953Z,101557.19
2023-04-17T02:35:35.695Z,101566.75
2023-04-17T02:38:02.131Z,101566.75
2023-04-17T02:40:28.618Z,101564.16
2023-04-17T02:42:55.052Z,101571.13
2023-04-17T02:45:21.619Z,101572.00
2023-04-17T02:47:48.553Z,101574.59
2023-04-17T02:50:15.031Z,101574.59
2023-04-17T02:52:41.537Z,101572.88
2023-04-17T02:55:09.662Z,101581.59
2023-04-17T02:57:36.148Z,101578.13
2023-04-17T03:00:05.453Z,101576.34
2023-04-17T03:02:32.138Z,101578.13
2023-04-17T03:05:02.018Z,101579.00
2023-04-17T03:07:28.527Z,101578.13
2023-04-17T03:09:57.468Z,101574.63
2023-04-17T03:12:23.991Z,101574.63
2023-04-17T03:14:50.786Z,101573.75
2023-04-17T03:17:17.805Z,101581.63
2023-04-17T03:19:44.221Z,101579.00
2023-04-17T03:22:13.170Z,101579.84
2023-04-17T03:24:41.208Z,101584.25
2023-04-17T03:27:07.749Z,101587.75
2023-04-17T03:29:34.289Z,101586.88
2023-04-17T03:32:00.884Z,101585.13
2023-04-17T03:34:28.987Z,101585.09
2023-04-17T03:36:55.818Z,101577.28
2023-04-17T03:39:22.333Z,101577.28
2023-04-17T03:41:48.816Z,101579.88
2023-04-17T03:44:15.528Z,101582.50
2023-04-17T03:46:41.980Z,101576.38
2023-04-17T03:49:08.467Z,101576.38
2023-04-17T03:51:34.860Z,101586.00
2023-04-17T03:54:01.295Z,101579.91
2023-04-17T03:56:27.719Z,101586.84
2023-04-17T03:58:54.156Z,101588.59
2023-04-17T04:01:22.324Z,101592.97
2023-04-17T04:03:49.125Z,101591.22
2023-04-17T04:06:20.218Z,101595.56
2023-04-17T04:08:46.763Z,101599.06
2023-04-17T04:11:13.464Z,101592.97
2023-04-17T04:13:39.995Z,101598.19
2023-04-17T04:16:06.940Z,101596.47
2023-04-17T04:18:33.511Z,101604.31
2023-04-17T04:21:00.065Z,101599.09
2023-04-17T04:23:27.814Z,101600.81
2023-04-17T04:25:57.867Z,101606.94
2023-04-17T04:28:24.416Z,101602.56
2023-04-17T04:30:53.579Z,101610.44
2023-04-17T04:33:20.852Z,101606.06
2023-04-17T04:35:48.313Z,101612.19
2023-04-17T04:38:17.248Z,101613.91
2023-04-17T04:40:49.871Z,101618.28
2023-04-17T04:43:16.488Z,101614.78
2023-04-17T04:45:43.019Z,101622.63
2023-04-17T04:48:09.580Z,101618.25
2023-04-17T04:50:36.082Z,101627.84
2023-04-17T04:53:02.557Z,101627.84
2023-04-17T04:55:30.667Z,101626.13
2023-04-17T04:57:57.590Z,101628.72
2023-04-17T05:00:24.791Z,101626.09
2023-04-17T05:02:51.376Z,101637.44
2023-04-17T05:05:17.888Z,101640.91
2023-04-17T05:07:44.377Z,101635.69
2023-04-17T05:10:10.886Z,101637.44
2023-04-17T05:12:37.330Z,101643.53
2023-04-17T05:15:04.113Z,101640.06
2023-04-17T05:17:30.829Z,101654.00
2023-04-17T05:19:57.289Z,101647.03
2023-04-17T05:22:23.873Z,101654.00
2023-04-17T05:24:50.504Z,101651.41
2023-04-17T05:27:16.993Z,101652.28
2023-04-17T05:29:43.463Z,101654.00
2023-04-17T05:32:10.016Z,101658.38
2023-04-17T05:34:36.441Z,101651.41
2023-04-17T05:37:03.361Z,101651.38
2023-04-17T05:39:29.926Z,101643.53
2023-04-17T05:41:56.466Z,101654.00
2023-04-17T05:44:22.962Z,101658.34
2023-04-17T05:46:49.390Z,101655.75
2023-04-17T05:49:15.998Z,101652.25
2023-04-17T05:51:42.495Z,101656.63
2023-04-17T05:54:08.943Z,101656.63
2023-04-17T05:56:35.671Z,101656.59
2023-04-17T05:59:02.154Z,101660.97
2023-04-17T06:01:29.745Z,101666.22
2023-04-17T06:03:56.635Z,101665.31
2023-04-17T06:06:23.349Z,101664.47
2023-04-17T06:08:49.842Z,101668.81
2023-04-17T06:11:17.218Z,101666.22
2023-04-17T06:13:43.737Z,101674.94
2023-04-17T06:16:10.863Z,101668.81
2023-04-17T06:18:37.576Z,101668.81
2023-04-17T06:21:04.665Z,101669.69
2023-04-17T06:23:31.184Z,101669.66
2023-04-17T06:25:57.823Z,101670.56
2023-04-17T06:28:24.368Z,101675.78
2023-04-17T06:30:51.155Z,101665.28
2023-04-17T06:33:17.725Z,101668.78
2023-04-17T06:35:44.183Z,101667.94
2023-04-17T06:38:10.726Z,101671.41
2023-04-17T06:40:37.909Z,101679.28
2023-04-17T06:43:04.952Z,101680.16
2023-04-17T06:45:33.590Z,101689.72
2023-04-17T06:48:00.175Z,101680.13
2023-04-17T06:50:27.043Z,101697.63
2023-04-17T06:52:53.540Z,101695.00
2023-04-17T06:55:20.077Z,101700.19
2023-04-17T06:57:46.553Z,101707.19
2023-04-17T07:00:13.750Z,101700.19
2023-04-17T07:02:40.415Z,101696.75
2023-04-17T07:05:07.743Z,101692.38
2023-04-17T07:07:35.836Z,101701.97
2023-04-17T07:10:03.760Z,101705.47
2023-04-17T07:12:30.474Z,101704.59
2023-04-17T07:14:56.959Z,101713.31
2023-04-17T07:17:23.503Z,101711.53
2023-04-17T07:19:50.001Z,101716.78
2023-04-17T07:22:16.509Z,101721.13
2023-04-17T07:24:42.994Z,101728.16
2023-04-17T07:27:09.643Z,101724.66
2023-04-17T07:29:36.210Z,101721.16
2023-04-17T07:32:03.209Z,101730.72
2023-04-17T07:34:31.284Z,101733.34
2023-04-17T07:36:57.804Z,101735.09
2023-04-17T07:39:26.917Z,101738.59
2023-04-17T07:41:53.394Z,101740.34
2023-04-17T07:44:19.913Z,101743.81
2023-04-17T07:46:46.450Z,101737.72
2023-04-17T07:49:13.190Z,101742.97
2023-04-17T07:51:41.221Z,101742.06
2023-04-17T07:54:07.813Z,101744.69
2023-04-17T07:56:34.649Z,101735.94
2023-04-17T07:59:01.168Z,101735.94
2023-04-17T08:01:27.721Z,101725.44
2023-04-17T08:03:55.482Z,101735.06
2023-04-17T08:06:23.512Z,101736.78
2023-04-17T08:08:50.049Z,101750.72
2023-04-17T08:11:16.533Z,101748.97
2023-04-17T08:13:43.028Z,101744.63
2023-04-17T08:16:10.050Z,101752.47
2023-04-17T08:18:37.780Z,101757.69
2023-04-17T08:21:04.727Z,101749.00
2023-04-17T08:23:31.440Z,101761.19
2023-04-17T08:25:58.298Z,101763.84
2023-04-17T08:28:25.172Z,101762.94
2023-04-17T08:30:52.229Z,101759.47
2023-04-17T08:33:18.812Z,101763.81
2023-04-17T08:35:45.720Z,101764.72
2023-04-17T08:38:14.442Z,101764.66
2023-04-17T08:40:42.942Z,101763.78
2023-04-17T08:43:19.576Z,101762.00
2023-04-17T08:45:55.166Z,101767.19
2023-04-17T08:48:23.692Z,101771.53
2023-04-17T08:50:51.939Z,101775.91
2023-04-17T08:53:19.105Z,101764.53
2023-04-17T08:55:46.879Z,101766.22
2023-04-17T08:58:14.672Z,101774.06
2023-04-17T09:00:43.332Z,101762.66
2023-04-17T09:03:14.309Z,101773.16
2023-04-17T09:05:45.855Z,101773.19
2023-04-17T09:08:17.702Z,101773.22
2023-04-17T09:10:46.261Z,101771.44
2023-04-17T09:13:25.007Z,101782.72
2023-04-17T09:16:06.238Z,101782.66
2023-04-17T09:18:34.608Z,101776.53
2023-04-17T09:21:02.392Z,101779.16
2023-04-17T09:23:31.141Z,101782.59
2023-04-17T09:26:12.342Z,101779.06
2023-04-17T09:28:39.986Z,101780.81
2023-04-17T09:31:24.803Z,101781.66
2023-04-17T09:34:08.459Z,101784.25
2023-04-17T09:36:37.848Z,101778.16
2023-04-17T09:39:17.950Z,101782.59
2023-04-17T09:41:44.550Z,101779.88
2023-04-17T09:44:12.412Z,101780.72
2023-04-17T09:46:45.866Z,101783.28
2023-04-17T09:49:15.578Z,101777.94
2023-04-17T09:51:42.419Z,101771.72
2023-04-17T09:54:15.052Z,101779.47
2023-04-17T09:56:43.131Z,101786.38
2023-04-17T09:59:10.370Z,101780.19
2023-04-17T10:01:37.929Z,101789.81
2023-04-17T10:04:05.352Z,101788.84
2023-04-17T10:06:34.078Z,101782.59
2023-04-17T10:09:01.136Z,101770.38
2023-04-17T10:11:31.998Z,101773.00
2023-04-17T10:14:19.634Z,101776.50
2023-04-17T10:16:47.336Z,101762.47
2023-04-17T10:19:34.128Z,101774.84
2023-04-17T10:22:16.043Z,101768.59
2023-04-17T10:24:43.093Z,101757.13
2023-04-17T10:27:25.634Z,101762.28
2023-04-17T10:29:54.064Z,101759.63
2023-04-17T10:32:21.683Z,101755.94
2023-04-17T10:34:48.351Z,101752.44
2023-04-17T10:37:17.734Z,101754.28
2023-04-17T10:40:01.078Z,101744.75
2023-04-17T10:42:30.181Z,101746.44
2023-04-17T10:45:01.748Z,101743.78
2023-04-17T10:47:35.553Z,101738.44
2023-04-17T10:50:04.027Z,101747.13
2023-04-17T10:52:34.611Z,101734.81
2023-04-17T10:55:04.255Z,101728.53
2023-04-17T10:57:53.466Z,101725.84
2023-04-17T11:00:28.279Z,101730.88
2023-04-17T11:02:55.109Z,101725.53
2023-04-17T11:05:23.957Z,101727.28
2023-04-17T11:07:51.452Z,101734.47
2023-04-17T11:10:20.201Z,101725.03
2023-04-17T11:12:53.392Z,101724.97
2023-04-17T11:15:31.224Z,101730.09
2023-04-17T11:17:59.281Z,101723.22
2023-04-17T11:20:27.971Z,101721.41
2023-04-17T11:22:54.542Z,101714.00
2023-04-17T11:25:27.002Z,101731.16
2023-04-17T11:27:57.897Z,101729.22
2023-04-17T11:30:42.181Z,101732.66
2023-04-17T11:33:09.073Z,101735.03
2023-04-17T11:35:37.392Z,101732.28
2023-04-17T11:38:23.665Z,101730.69
2023-04-17T11:40:55.576Z,101735.28
2023-04-17T11:43:23.741Z,101742.28
2023-04-17T11:45:52.770Z,101733.69
2023-04-17T11:48:27.468Z,101733.84
2023-04-17T11:51:01.088Z,101733.81
2023-04-17T11:53:27.803Z,101734.56
2023-04-17T11:56:14.475Z,101736.28
2023-04-17T11:58:54.877Z,101739.84
2023-04-17T12:01:26.332Z,101745.72
2023-04-17T12:03:57.706Z,101728.97
2023-04-17T12:06:35.313Z,101718.56
2023-04-17T12:09:02.960Z,101730.25
2023-04-17T12:11:31.273Z,101716.91
2023-04-17T12:13:57.895Z,101720.97
2023-04-17T12:16:25.846Z,101715.56
2023-04-17T12:18:53.016Z,101724.34
2023-04-17T12:21:23.832Z,101726.00
2023-04-17T12:23:51.015Z,101729.75
2023-04-17T12:26:17.556Z,101732.75
2023-04-17T12:28:44.084Z,101727.53
2023-04-17T12:31:10.698Z,101731.53
2023-04-17T12:33:37.402Z,101727.25
2023-04-17T12:36:05.223Z,101731.53
2023-04-17T12:38:32.210Z,101725.53
2023-04-17T12:40:58.701Z,101742.09
2023-04-17T12:43:25.441Z,101725.19
2023-04-17T12:45:55.030Z,101711.25
2023-04-17T12:48:21.647Z,101719.50
2023-04-17T12:50:48.162Z,101714.47
2023-04-17T12:53:15.264Z,101716.88
2023-04-17T12:55:44.182Z,101724.22
2023-04-17T12:58:13.218Z,101715.53
2023-04-17T13:00:43.495Z,101713.19
2023-04-17T13:03:10.772Z,101712.03
2023-04-17T13:05:37.676Z,101717.56
2023-04-17T13:08:04.246Z,101710.34
2023-04-17T13:10:31.534Z,101701.56
2023-04-17T13:12:58.030Z,101702.53
2023-04-17T13:15:24.452Z,101711.56
2023-04-17T13:17:50.954Z,101713.47
2023-04-17T13:20:17.574Z,101709.03
2023-04-17T13:22:44.141Z,101699.25
2023-04-17T13:25:10.616Z,101698.13
2023-04-17T13:27:37.429Z,101706.94
2023-04-17T13:30:04.251Z,101707.47
2023-04-17T13:32:30.747Z,101698.13
2023-04-17T13:34:58.745Z,101698.94
2023-04-17T13:37:25.808Z,101703.69
2023-04-17T13:39:52.589Z,101707.34
2023-04-17T13:42:19.530Z,101700.94
2023-04-17T13:44:46.125Z,101702.44
2023-04-17T13:47:13.276Z,101705.84
2023-04-17T13:49:39.755Z,101702.34
2023-04-17T13:52:06.509Z,101688.25
2023-04-17T13:54:33.084Z,101692.56
2023-04-17T13:56:59.546Z,101689.25
2023-04-17T13:59:26.194Z,101684.88
2023-04-17T14:01:52.812Z,101678.38
2023-04-17T14:04:19.666Z,101685.09
2023-04-17T14:06:49.587Z,101675.47
2023-04-17T14:09:17.038Z,101681.63
2023-04-17T14:11:43.613Z,101682.25
2023-04-17T14:14:12.519Z,101686.69
2023-04-17T14:16:40.622Z,101675.69
2023-04-17T14:19:13.969Z,101669.66
2023-04-17T14:21:41.565Z,101675.72
2023-04-17T14:24:08.621Z,101671.75
2023-04-17T14:26:35.886Z,101672.88
2023-04-17T14:29:02.370Z,101672.25
2023-04-17T14:31:28.899Z,101680.47
2023-04-17T14:33:55.438Z,101667.88
2023-04-17T14:36:21.938Z,101676.41
2023-04-17T14:38:51.170Z,101678.59
2023-04-17T14:41:18.145Z,101675.94
2023-04-17T14:43:44.887Z,101675.56
2023-04-17T14:46:11.874Z,101673.22
2023-04-17T14:48:47.952Z,101678.34
2023-04-17T14:51:18.589Z,101675.16
2023-04-17T14:53:45.225Z,101663.75
2023-04-17T14:56:11.759Z,101670.28
2023-04-17T14:58:38.246Z,101671.38
2023-04-17T15:01:04.844Z,101669.91
2023-04-17T15:03:32.281Z,101656.50
2023-04-17T15:05:59.401Z,101667.63
2023-04-17T15:08:25.832Z,101655.72
2023-04-17T15:10:52.278Z,101654.63
2023-04-17T15:13:18.731Z,101655.25
2023-04-17T15:15:45.215Z,101648.84
2023-04-17T15:18:11.694Z,101655.56
2023-04-17T15:20:38.174Z,101655.97
2023-04-17T15:23:05.740Z,101648.66
2023-04-17T15:25:32.282Z,101642.53
2023-04-17T15:27:58.697Z,101650.28
2023-04-17T15:30:25.223Z,101657.00
2023-04-17T15:32:51.668Z,101650.63
2023-04-17T15:35:18.329Z,101653.78
2023-04-17T15:37:44.853Z,101650.84
2023-04-17T15:40:11.706Z,101650.06
2023-04-17T15:42:38.195Z,101648.59
2023-04-17T15:45:05.322Z,101652.28
2023-04-17T15:47:31.818Z,101660.41
2023-04-17T15:49:58.330Z,101656.47
2023-04-17T15:52:24.908Z,101654.78
2023-04-17T15:54:51.498Z,101644.34
2023-04-17T15:57:17.975Z,101644.59
2023-04-17T15:59:44.527Z,101649.09
2023-04-17T16:02:12.973Z,101644.81
2023-04-17T16:04:39.993Z,101645.34
2023-04-17T16:07:06.651Z,101643.19
2023-04-17T16:09:33.080Z,101643.94
2023-04-17T16:11:59.691Z,101642.59
2023-04-17T16:14:26.704Z,101630.91
2023-04-17T16:16:53.275Z,101634.47
2023-04-17T16:19:19.684Z,101638.59
2023-04-17T16:21:46.102Z,101636.19
2023-04-17T16:24:12.587Z,101635.34
2023-04-17T16:26:39.018Z,101632.66
2023-04-17T16:29:05.489Z,101632.41
2023-04-17T16:31:32.113Z,101620.81
2023-04-17T16:33:58.604Z,101626.91
2023-04-17T16:36:27.226Z,101625.97
2023-04-17T16:38:53.690Z,101625.69
2023-04-17T16:41:20.435Z,101623.09
2023-04-17T16:43:46.864Z,101624.81
2023-04-17T16:46:22.184Z,101617.97
2023-04-17T16:48:51.292Z,101629.03
2023-04-17T16:51:20.193Z,101626.44
2023-04-17T16:53:50.438Z,101627.50
2023-04-17T16:56:16.994Z,101635.28
2023-04-17T16:58:43.467Z,101622.50
2023-04-17T17:01:09.976Z,101626.03
2023-04-17T17:03:38.018Z,101624.53
2023-04-17T17:06:06.965Z,101628.28
2023-04-17T17:08:33.467Z,101626.28
2023-04-17T17:11:00.173Z,101622.75
2023-04-17T17:13:26.877Z,101630.66
2023-04-17T17:15:53.381Z,101630.34
2023-04-17T17:18:19.844Z,101627.84
2023-04-17T17:20:48.935Z,101634.94
2023-04-17T17:23:15.524Z,101638.69
2023-04-17T17:25:41.963Z,101634.44
2023-04-17T17:28:08.407Z,101629.19
2023-04-17T17:30:34.880Z,101625.63
2023-04-17T17:33:01.427Z,101630.97
2023-04-17T17:35:27.980Z,101638.88
2023-04-17T17:37:54.947Z,101632.97
2023-04-17T17:40:21.452Z,101629.00
2023-04-17T17:42:47.926Z,101637.00
2023-04-17T17:45:14.527Z,101635.47
2023-04-17T17:47:42.142Z,101637.34
2023-04-17T17:50:08.963Z,101644.63
2023-04-17T17:52:35.556Z,101638.72
2023-04-17T17:55:02.149Z,101643.97
2023-04-17T17:57:38.431Z,101638.72
2023-04-17T18:00:09.670Z,101644.03
2023-04-17T18:02:36.334Z,101639.88
2023-04-17T18:05:03.180Z,101638.19
2023-04-17T18:07:30.264Z,101638.53
2023-04-17T18:09:56.661Z,101634.25
2023-04-17T18:12:23.145Z,101636.84
2023-04-17T18:14:49.616Z,101638.72
2023-04-17T18:17:16.105Z,101646.66
2023-04-17T18:19:43.502Z,101649.38
2023-04-17T18:22:10.212Z,101646.78
2023-04-17T18:24:36.798Z,101661.84
2023-04-17T18:27:03.345Z,101652.38
2023-04-17T18:29:30.226Z,101658.66
2023-04-17T18:31:56.771Z,101655.22
2023-04-17T18:34:23.382Z,101656.25
2023-04-17T18:36:50.960Z,101659.00
2023-04-17T18:39:19.843Z,101659.06
2023-04-17T18:41:49.344Z,101661.78
2023-04-17T18:44:16.127Z,101658.28
2023-04-17T18:46:43.698Z,101661.06
2023-04-17T18:49:10.128Z,101660.34
2023-04-17T18:51:37.735Z,101658.88
2023-04-17T18:54:04.908Z,101660.91
2023-04-17T18:56:31.412Z,101661.22
2023-04-17T18:58:57.892Z,101667.28
2023-04-17T19:01:24.318Z,101662.19
2023-04-17T19:03:52.962Z,101659.63
2023-04-17T19:06:19.462Z,101663.13
2023-04-17T19:08:46.030Z,101666.72
2023-04-17T19:11:12.708Z,101660.63
2023-04-17T19:13:39.847Z,101664.97
2023-04-17T19:16:06.410Z,101666.78
2023-04-17T19:18:32.972Z,101664.22
2023-04-17T19:20:59.445Z,101664.69
2023-04-17T19:23:26.013Z,101661.38
2023-04-17T19:25:55.156Z,101670.25
2023-04-17T19:28:22.574Z,101671.19
2023-04-17T19:30:49.097Z,101672.97
2023-04-17T19:33:15.558Z,101671.16
2023-04-17T19:35:42.006Z,101670.28
2023-04-17T19:38:08.453Z,101677.31
2023-04-17T19:40:34.980Z,101671.31
2023-04-17T19:43:02.215Z,101670.63
2023-04-17T19:45:29.227Z,101677.59
2023-04-17T19:47:57.198Z,101677.56
2023-04-17T19:50:27.406Z,101679.31
2023-04-17T19:52:59.666Z,101675.03
2023-04-17T19:55:27.424Z,101671.72
2023-04-17T19:57:56.551Z,101676.03
2023-04-17T20:00:24.170Z,101675.19
2023-04-17T20:02:51.097Z,101671.66
2023-04-17T20:05:18.874Z,101676.06
2023-04-17T20:07:45.975Z,101667.31
2023-04-17T20:10:12.993Z,101675.16
2023-04-17T20:12:39.569Z,101670.69
2023-04-17T20:15:06.580Z,101666.31
2023-04-17T20:17:33.080Z,101676.91
2023-04-17T20:19:59.553Z,101664.81
2023-04-17T20:22:26.129Z,101665.66
2023-04-17T20:24:52.670Z,101667.44
2023-04-17T20:27:19.117Z,101663.97
2023-04-17T20:29:45.640Z,101667.53
2023-04-17T20:32:12.196Z,101664.03
2023-04-17T20:34:38.636Z,101660.59
2023-04-17T20:37:05.132Z,101664.13
2023-04-17T20:39:32.090Z,101654.53
2023-04-17T20:41:58.523Z,101654.59
2023-04-17T20:44:25.017Z,101654.59
2023-04-17T20:46:51.575Z,101656.28
2023-04-17T20:49:18.012Z,101658.91
2023-04-17T20:51:45.023Z,101651.13
2023-04-17T20:54:11.738Z,101651.19
2023-04-17T20:56:38.441Z,101652.06
2023-04-17T20:59:04.890Z,101647.72
2023-04-17T21:01:31.533Z,101650.28
2023-04-17T21:03:58.367Z,101650.31
2023-04-17T21:06:25.948Z,101651.16
2023-04-17T21:08:52.786Z,101648.56
2023-04-17T21:11:19.995Z,101646.91
2023-04-17T21:13:46.466Z,101655.66
2023-04-17T21:16:13.706Z,101659.19
2023-04-17T21:18:40.429Z,101651.31
2023-04-17T21:21:06.928Z,101651.31
2023-04-17T21:23:34.487Z,101652.19
2023-04-17T21:26:01.116Z,101648.66
2023-04-17T21:28:27.551Z,101650.38
2023-04-17T21:30:55.168Z,101645.09
2023-04-17T21:33:21.658Z,101645.97
2023-04-17T21:35:48.110Z,101650.31
2023-04-17T21:38:14.580Z,101651.16
2023-04-17T21:40:50.621Z,101652.03
2023-04-17T21:43:17.829Z,101652.91
2023-04-17T21:45:44.328Z,101654.69
2023-04-17T21:48:10.920Z,101653.78
2023-04-17T21:50:37.393Z,101659.06
2023-04-17T21:53:03.829Z,101663.44
2023-04-17T21:55:30.326Z,101672.16
2023-04-17T21:57:56.747Z,101673.94
2023-04-17T22:00:23.678Z,101668.69
2023-04-17T22:02:50.245Z,101674.81
2023-04-17T22:05:17.075Z,101670.47
2023-04-17T22:07:54.319Z,101671.38
2023-04-17T22:10:22.031Z,101664.41
2023-04-17T22:12:48.572Z,101661.78
2023-04-17T22:15:15.068Z,101665.28
2023-04-17T22:17:41.509Z,101663.53
2023-04-17T22:20:08.736Z,101655.66
2023-04-17T22:22:35.373Z,101662.66
2023-04-17T22:25:01.941Z,101674.88
2023-04-17T22:27:29.126Z,101676.63
2023-04-17T22:29:56.292Z,101672.25
2023-04-17T22:32:22.808Z,101671.38
2023-04-17T22:34:50.256Z,101669.59
2023-04-17T22:37:16.756Z,101666.97
2023-04-17T22:39:43.185Z,101671.38
2023-04-17T22:42:09.802Z,101672.25
2023-04-17T22:44:36.474Z,101664.41
2023-04-17T22:47:03.412Z,101672.25
2023-04-17T22:49:30.731Z,101673.13
2023-04-17T22:51:57.173Z,101667.88
2023-04-17T22:54:23.638Z,101666.13
2023-04-17T22:56:50.256Z,101671.41
2023-04-17T22:59:16.723Z,101674.88
2023-04-17T23:01:43.186Z,101672.28
2023-04-17T23:04:10.289Z,101667.91
2023-04-17T23:06:36.821Z,101672.28
2023-04-17T23:09:04.783Z,101672.31
2023-04-17T23:11:32.630Z,101668.81
2023-04-17T23:13:59.379Z,101675.78
2023-04-17T23:16:26.161Z,101664.44
2023-04-17T23:18:52.796Z,101667.06
2023-04-17T23:21:19.391Z,101665.34
2023-04-17T23:23:48.091Z,101660.09
2023-04-17T23:26:15.369Z,101662.72
2023-04-17T23:28:42.064Z,101669.69
2023-04-17T23:31:08.569Z,101667.06
2023-04-17T23:33:35.544Z,101667.94
2023-04-17T23:36:02.344Z,101677.53
2023-04-17T23:38:28.813Z,101675.78
2023-04-17T23:40:55.393Z,101666.22
2023-04-17T23:43:21.837Z,101674.06
2023-04-17T23:45:48.325Z,101667.97
2023-04-17T23:48:14.846Z,101662.72
2023-04-17T23:50:41.399Z,101671.44
2023-04-17T23:53:07.875Z,101667.97
2023-04-17T23:55:34.559Z,101667.94
2023-04-17T23:58:01.002Z,101663.59
